createdAt,value
2018-02-21T00:01:04.951Z,47.63
2018-02-21T00:03:35.730Z,47.43
2018-02-21T00:06:06.542Z,51.97
2018-02-21T00:08:37.373Z,45.50
2018-02-21T00:11:09.241Z,53.27
2018-02-21T00:13:40.055Z,49.22
2018-02-21T00:16:10.887Z,47.00
2018-02-21T00:18:41.714Z,44.60
2018-02-21T00:21:12.559Z,49.63
2018-02-21T00:23:43.351Z,48.67
2018-02-21T00:26:14.175Z,45.20
2018-02-21T00:28:44.992Z,49.33
2018-02-21T00:31:15.866Z,54.10
2018-02-21T00:33:46.699Z,50.40
2018-02-21T00:36:17.507Z,44.00
2018-02-21T00:38:48.335Z,49.53
2018-02-21T00:41:19.152Z,55.30
2018-02-21T00:43:49.920Z,60.07
2018-02-21T00:46:20.745Z,51.30
2018-02-21T00:48:51.517Z,55.30
2018-02-21T00:51:22.347Z,53.40
2018-02-21T00:53:53.250Z,47.73
2018-02-21T00:56:24.120Z,53.20
2018-02-21T00:58:54.922Z,53.03
2018-02-21T01:01:25.765Z,49.97
2018-02-21T01:03:56.573Z,57.53
2018-02-21T01:06:27.420Z,48.60
2018-02-21T01:08:58.254Z,48.20
2018-02-21T01:11:29.088Z,56.03
2018-02-21T01:13:59.894Z,49.17
2018-02-21T01:16:30.730Z,56.23
2018-02-21T01:19:01.524Z,58.70
2018-02-21T01:21:32.349Z,51.43
2018-02-21T01:24:03.182Z,59.50
2018-02-21T01:26:34.004Z,59.83
2018-02-21T01:29:04.824Z,53.80
2018-02-21T01:31:35.654Z,47.73
2018-02-21T01:34:06.530Z,50.70
2018-02-21T01:36:37.403Z,50.73
2018-02-21T01:39:08.213Z,52.80
2018-02-21T01:41:39.052Z,51.30
2018-02-21T01:44:09.851Z,58.30
2018-02-21T01:46:40.714Z,62.63
2018-02-21T01:49:11.514Z,48.70
2018-02-21T01:51:42.317Z,54.17
2018-02-21T01:54:13.146Z,49.60
2018-02-21T01:56:44.006Z,52.13
2018-02-21T01:59:14.809Z,55.27
2018-02-21T02:01:46.451Z,55.87
2018-02-21T02:04:17.289Z,58.25
2018-02-21T02:06:48.121Z,51.40
2018-02-21T02:09:18.934Z,57.40
2018-02-21T02:11:49.779Z,62.17
2018-02-21T02:14:20.584Z,54.83
2018-02-21T02:16:51.405Z,55.80
2018-02-21T02:19:22.225Z,55.93
2018-02-21T02:21:53.114Z,56.73
2018-02-21T02:24:23.960Z,52.70
2018-02-21T02:26:54.860Z,57.33
2018-02-21T02:29:25.679Z,59.60
2018-02-21T02:31:56.513Z,55.30
2018-02-21T02:34:27.319Z,58.57
2018-02-21T02:36:58.197Z,61.87
2018-02-21T02:39:41.254Z,58.57
2018-02-21T02:42:12.053Z,54.08
2018-02-21T02:44:42.862Z,56.50
2018-02-21T02:47:13.747Z,58.90
2018-02-21T02:49:44.555Z,52.40
2018-02-21T02:52:15.388Z,54.67
2018-02-21T02:54:46.205Z,55.87
2018-02-21T02:57:17.033Z,53.30
2018-02-21T02:59:47.857Z,56.70
2018-02-21T03:02:18.669Z,54.50
2018-02-21T03:04:49.503Z,57.53
2018-02-21T03:07:20.348Z,55.00
2018-02-21T03:09:51.177Z,58.23
2018-02-21T03:12:22.025Z,63.73
2018-02-21T03:14:52.869Z,53.90
2018-02-21T03:17:23.698Z,49.27
2018-02-21T03:19:54.538Z,56.80
2018-02-21T03:22:25.371Z,57.57
2018-02-21T03:24:56.198Z,60.37
2018-02-21T03:27:27.061Z,60.00
2018-02-21T03:29:57.902Z,54.70
2018-02-21T03:32:28.770Z,57.33
2018-02-21T03:34:59.597Z,84.73
2018-02-21T03:37:30.450Z,55.13
2018-02-21T03:40:01.250Z,50.70
2018-02-21T03:42:32.096Z,56.10
2018-02-21T03:45:02.930Z,61.27
2018-02-21T03:47:33.782Z,55.23
2018-02-21T03:50:04.644Z,56.13
2018-02-21T03:52:35.757Z,58.90
2018-02-21T03:55:06.566Z,65.28
2018-02-21T03:57:37.377Z,56.40
2018-02-21T04:00:08.178Z,54.10
2018-02-21T04:02:39.298Z,48.53
2018-02-21T04:05:10.542Z,64.00
2018-02-21T04:07:41.407Z,53.10
2018-02-21T04:10:12.242Z,55.77
2018-02-21T04:12:43.081Z,56.67
2018-02-21T04:15:13.910Z,56.77
2018-02-21T04:17:44.808Z,56.90
2018-02-21T04:20:15.644Z,58.17
2018-02-21T04:22:46.477Z,63.83
2018-02-21T04:25:17.289Z,54.77
2018-02-21T04:27:48.416Z,58.43
2018-02-21T04:30:19.214Z,62.15
2018-02-21T04:32:52.004Z,57.93
2018-02-21T04:35:22.828Z,61.65
2018-02-21T04:37:53.670Z,72.40
2018-02-21T04:40:24.479Z,62.77
2018-02-21T04:42:55.292Z,53.90
2018-02-21T04:45:26.136Z,52.57
2018-02-21T04:47:56.994Z,63.40
2018-02-21T04:50:27.837Z,55.33
2018-02-21T04:52:58.698Z,53.83
2018-02-21T04:55:31.471Z,57.70
2018-02-21T04:58:08.315Z,68.50
2018-02-21T05:00:39.398Z,64.25
2018-02-21T05:03:10.204Z,64.78
2018-02-21T05:05:41.090Z,54.63
2018-02-21T05:08:12.302Z,57.97
2018-02-21T05:10:43.143Z,59.83
2018-02-21T05:13:13.989Z,64.50
2018-02-21T05:15:44.821Z,57.83
2018-02-21T05:18:15.942Z,61.90
2018-02-21T05:20:46.732Z,67.12
2018-02-21T05:23:17.547Z,63.77
2018-02-21T05:25:48.324Z,60.87
2018-02-21T05:28:19.166Z,60.10
2018-02-21T05:30:50.675Z,59.77
2018-02-21T05:33:21.499Z,63.17
2018-02-21T05:35:52.343Z,63.60
2018-02-21T05:38:23.174Z,59.53
2018-02-21T05:40:54.000Z,58.43
2018-02-21T05:43:25.161Z,60.53
2018-02-21T05:45:55.943Z,60.63
2018-02-21T05:48:26.795Z,60.63
2018-02-21T05:50:57.575Z,61.63
2018-02-21T05:53:28.410Z,63.77
2018-02-21T05:55:59.250Z,67.03
2018-02-21T05:58:30.110Z,73.37
2018-02-21T06:01:01.446Z,73.00
2018-02-21T06:03:32.286Z,66.40
2018-02-21T06:06:03.084Z,64.73
2018-02-21T06:08:33.915Z,61.10
2018-02-21T06:11:04.685Z,67.67
2018-02-21T06:13:35.469Z,72.43
2018-02-21T06:16:06.248Z,69.77
2018-02-21T06:18:37.068Z,62.13
2018-02-21T06:21:07.825Z,62.80
2018-02-21T06:23:38.613Z,65.87
2018-02-21T06:26:09.412Z,68.80
2018-02-21T06:28:40.204Z,64.17
2018-02-21T06:31:10.994Z,78.47
2018-02-21T06:33:41.760Z,62.20
2018-02-21T06:36:12.539Z,65.63
2018-02-21T06:38:43.540Z,64.57
2018-02-21T06:41:15.343Z,71.00
2018-02-21T06:43:46.129Z,67.18
2018-02-21T06:46:16.897Z,57.67
2018-02-21T06:48:47.742Z,71.87
2018-02-21T06:51:18.614Z,64.37
2018-02-21T06:53:49.456Z,75.83
2018-02-21T06:56:21.289Z,71.93
2018-02-21T06:58:52.076Z,78.22
2018-02-21T07:01:22.836Z,69.70
2018-02-21T07:03:53.613Z,80.57
2018-02-21T07:06:24.375Z,74.27
2018-02-21T07:08:56.208Z,62.23
2018-02-21T07:11:26.960Z,63.55
2018-02-21T07:13:57.754Z,63.33
2018-02-21T07:16:28.498Z,66.03
2018-02-21T07:18:59.343Z,57.00
2018-02-21T07:21:30.088Z,62.63
2018-02-21T07:24:00.836Z,66.17
2018-02-21T07:26:31.592Z,62.03
2018-02-21T07:29:02.348Z,65.03
2018-02-21T07:31:33.097Z,65.00
2018-02-21T07:34:03.861Z,56.63
2018-02-21T07:36:34.588Z,62.40
2018-02-21T07:39:05.364Z,63.67
2018-02-21T07:41:36.316Z,61.17
2018-02-21T07:44:07.145Z,74.15
2018-02-21T07:46:38.079Z,65.30
2018-02-21T07:49:09.079Z,61.83
2018-02-21T07:51:40.046Z,67.93
2018-02-21T07:54:11.064Z,66.03
2018-02-21T07:56:42.021Z,65.25
2018-02-21T07:59:13.028Z,59.90
2018-02-21T08:01:43.992Z,69.50
2018-02-21T08:04:16.004Z,67.20
2018-02-21T08:06:46.966Z,57.15
2018-02-21T08:09:18.033Z,65.30
2018-02-21T08:11:48.966Z,60.20
2018-02-21T08:14:19.934Z,62.00
2018-02-21T08:16:51.927Z,63.70
2018-02-21T08:19:22.977Z,61.03
2018-02-21T08:21:53.961Z,58.72
2018-02-21T08:24:24.954Z,64.12
2018-02-21T08:26:56.250Z,58.03
2018-02-21T08:29:27.242Z,57.13
2018-02-21T08:31:58.187Z,53.17
2018-02-21T08:34:29.167Z,60.00
2018-02-21T08:36:59.930Z,56.53
2018-02-21T08:39:30.895Z,61.13
2018-02-21T08:42:01.837Z,60.92
2018-02-21T08:44:32.826Z,58.60
2018-02-21T08:47:03.796Z,63.42
2018-02-21T08:49:34.777Z,56.40
2018-02-21T08:52:06.861Z,51.67
2018-02-21T08:54:37.851Z,54.58
2018-02-21T08:57:08.820Z,55.38
2018-02-21T08:59:39.783Z,56.27
2018-02-21T09:02:11.799Z,59.85
2018-02-21T09:04:42.836Z,51.25
2018-02-21T09:07:13.830Z,54.25
2018-02-21T09:09:44.876Z,57.60
2018-02-21T09:12:15.862Z,59.65
2018-02-21T09:14:46.828Z,63.63
2018-02-21T09:17:17.797Z,49.00
2018-02-21T09:19:48.801Z,52.97
2018-02-21T09:22:19.808Z,56.80
2018-02-21T09:24:55.349Z,52.33
2018-02-21T09:27:26.389Z,54.35
2018-02-21T09:29:57.364Z,54.15
2018-02-21T09:32:28.327Z,46.90
2018-02-21T09:34:59.297Z,48.70
2018-02-21T09:37:42.828Z,49.25
2018-02-21T09:40:13.935Z,47.05
2018-02-21T09:42:45.007Z,41.33
2018-02-21T09:45:15.995Z,38.53
2018-02-21T09:47:46.966Z,42.93
2018-02-21T09:50:17.920Z,47.30
2018-02-21T09:52:48.880Z,41.30
2018-02-21T09:55:23.652Z,42.70
2018-02-21T09:57:54.613Z,43.28
2018-02-21T10:00:25.600Z,32.17
2018-02-21T10:02:57.352Z,39.08
2018-02-21T10:05:28.376Z,38.25
2018-02-21T10:07:59.417Z,38.15
2018-02-21T10:10:30.431Z,31.17
2018-02-21T10:13:01.397Z,42.13
2018-02-21T10:15:32.382Z,34.20
2018-02-21T10:18:03.325Z,38.97
2018-02-21T10:20:34.335Z,37.20
2018-02-21T10:23:05.252Z,42.00
2018-02-21T10:25:36.237Z,34.37
2018-02-21T10:28:15.309Z,32.35
2018-02-21T10:30:46.301Z,38.03
2018-02-21T10:33:17.258Z,39.85
2018-02-21T10:35:48.237Z,35.70
2018-02-21T10:38:19.243Z,38.95
2018-02-21T10:40:50.262Z,32.50
2018-02-21T10:43:21.202Z,32.38
2018-02-21T10:46:03.768Z,31.53
2018-02-21T10:48:40.305Z,32.03
2018-02-21T10:51:11.102Z,38.15
2018-02-21T10:53:41.857Z,31.60
2018-02-21T10:56:12.653Z,31.10
2018-02-21T10:58:44.429Z,34.93
2018-02-21T11:01:21.225Z,36.25
2018-02-21T11:03:51.969Z,39.88
2018-02-21T11:06:22.740Z,36.93
2018-02-21T11:08:53.492Z,32.00
2018-02-21T11:11:24.273Z,35.40
2018-02-21T11:13:55.044Z,30.57
2018-02-21T11:16:25.817Z,31.67
2018-02-21T11:24:56.085Z,41.25
2018-02-21T11:27:26.893Z,38.70
2018-02-21T11:30:04.104Z,30.90
2018-02-21T11:32:41.678Z,28.52
2018-02-21T11:35:16.013Z,38.05
2018-02-21T11:37:46.813Z,30.00
2018-02-21T11:40:21.410Z,33.50
2018-02-21T11:48:57.710Z,34.75
2018-02-21T11:51:28.562Z,30.00
2018-02-21T11:53:59.435Z,33.60
2018-02-21T11:56:30.268Z,29.30
2018-02-21T11:59:01.085Z,31.00
2018-02-21T12:01:31.866Z,31.80
2018-02-21T12:04:02.714Z,33.10
2018-02-21T12:06:33.519Z,27.87
2018-02-21T12:09:04.329Z,27.87
2018-02-21T12:11:35.147Z,30.17
2018-02-21T12:14:06.024Z,26.13
2018-02-21T12:16:36.819Z,28.03
2018-02-21T12:19:07.694Z,27.60
2018-02-21T12:21:38.523Z,25.87
2018-02-21T12:24:09.330Z,28.03
2018-02-21T12:26:40.171Z,28.40
2018-02-21T12:29:11.938Z,25.00
2018-02-21T12:31:44.956Z,28.27
2018-02-21T12:34:15.773Z,29.63
2018-02-21T12:36:46.624Z,29.77
2018-02-21T12:39:23.557Z,26.57
2018-02-21T12:41:54.440Z,32.85
2018-02-21T12:44:25.280Z,31.73
2018-02-21T12:46:56.144Z,28.23
2018-02-21T12:49:27.009Z,31.80
2018-02-21T12:51:57.852Z,29.17
2018-02-21T12:54:28.725Z,23.00
2018-02-21T12:56:59.566Z,28.83
2018-02-21T12:59:30.448Z,24.30
2018-02-21T13:02:01.257Z,25.23
2018-02-21T13:04:32.186Z,24.00
2018-02-21T13:07:02.994Z,25.23
2018-02-21T13:09:33.913Z,20.23
2018-02-21T13:12:04.746Z,19.33
2018-02-21T13:14:35.617Z,23.77
2018-02-21T13:17:06.457Z,26.60
2018-02-21T13:19:37.306Z,22.03
2018-02-21T13:22:08.268Z,25.67
2018-02-21T13:24:39.108Z,20.23
2018-02-21T13:27:09.957Z,22.53
2018-02-21T13:29:40.970Z,25.20
2018-02-21T13:32:11.798Z,23.85
2018-02-21T13:34:42.764Z,20.80
2018-02-21T13:37:13.721Z,23.53
2018-02-21T13:39:45.358Z,26.80
2018-02-21T13:42:16.203Z,21.58
2018-02-21T13:44:47.162Z,21.30
2018-02-21T13:47:18.128Z,18.20
2018-02-21T13:49:49.041Z,23.53
2018-02-21T13:52:20.596Z,22.03
2018-02-21T13:54:51.431Z,18.10
2018-02-21T13:57:22.331Z,20.93
2018-02-21T13:59:53.198Z,25.50
2018-02-21T14:02:24.039Z,18.03
2018-02-21T14:04:55.964Z,21.70
2018-02-21T14:07:26.873Z,21.17
2018-02-21T14:09:57.845Z,22.20
2018-02-21T14:12:28.789Z,18.77
2018-02-21T14:14:59.724Z,23.70
2018-02-21T14:17:30.586Z,24.60
2018-02-21T14:20:01.498Z,20.53
2018-02-21T14:22:32.369Z,25.87
2018-02-21T14:25:03.243Z,24.87
2018-02-21T14:27:34.177Z,22.60
2018-02-21T14:30:05.054Z,23.47
2018-02-21T14:32:35.912Z,28.33
2018-02-21T14:35:06.752Z,25.17
2018-02-21T14:37:37.590Z,23.60
2018-02-21T14:40:08.465Z,24.77
2018-02-21T14:42:39.517Z,22.67
2018-02-21T14:45:10.422Z,22.10
2018-02-21T14:47:41.409Z,23.80
2018-02-21T14:50:12.358Z,26.02
2018-02-21T14:52:43.245Z,27.00
2018-02-21T14:55:14.094Z,25.07
2018-02-21T14:57:44.985Z,27.57
2018-02-21T15:00:15.971Z,26.17
2018-02-21T15:02:46.950Z,25.67
2018-02-21T15:05:17.845Z,24.40
2018-02-21T15:07:48.707Z,26.13
2018-02-21T15:10:19.657Z,25.27
2018-02-21T15:12:50.500Z,30.70
2018-02-21T15:15:21.359Z,24.30
2018-02-21T15:17:52.195Z,29.57
2018-02-21T15:20:23.087Z,25.80
2018-02-21T15:22:54.010Z,25.07
2018-02-21T15:25:24.894Z,25.17
2018-02-21T15:27:55.698Z,29.33
2018-02-21T15:30:26.665Z,28.40
2018-02-21T15:32:57.459Z,27.77
2018-02-21T15:35:28.295Z,26.70
2018-02-21T15:37:59.197Z,30.43
2018-02-21T15:40:30.142Z,27.37
2018-02-21T15:43:01.010Z,32.50
2018-02-21T15:45:31.886Z,28.97
2018-02-21T15:48:02.756Z,35.67
2018-02-21T15:50:33.582Z,33.70
2018-02-21T15:53:04.462Z,29.50
2018-02-21T15:55:35.346Z,34.93
2018-02-21T15:58:06.205Z,33.47
2018-02-21T16:00:37.067Z,34.07
2018-02-21T16:03:07.919Z,33.10
2018-02-21T16:05:38.756Z,35.37
2018-02-21T16:08:09.607Z,37.10
2018-02-21T16:10:40.475Z,36.13
2018-02-21T16:13:11.306Z,34.67
2018-02-21T16:15:42.217Z,38.67
2018-02-21T16:18:16.346Z,38.20
2018-02-21T16:20:47.320Z,34.80
2018-02-21T16:23:18.225Z,38.72
2018-02-21T16:25:49.090Z,35.47
2018-02-21T16:28:19.998Z,33.00
2018-02-21T16:30:50.901Z,37.30
2018-02-21T16:33:21.791Z,32.67
2018-02-21T16:35:53.640Z,31.67
2018-02-21T16:38:24.500Z,31.17
2018-02-21T16:40:55.479Z,34.20
2018-02-21T16:43:26.355Z,35.72
2018-02-21T16:45:57.314Z,35.33
2018-02-21T16:48:28.184Z,31.57
2018-02-21T16:50:59.091Z,31.93
2018-02-21T16:53:30.034Z,28.33
2018-02-21T16:56:00.970Z,37.10
2018-02-21T16:58:31.815Z,33.37
2018-02-21T17:01:02.800Z,29.33
2018-02-21T17:03:33.684Z,33.05
2018-02-21T17:06:05.518Z,30.90
2018-02-21T17:08:36.787Z,34.65
2018-02-21T17:11:11.166Z,28.20
2018-02-21T17:13:42.051Z,32.78
2018-02-21T17:16:12.938Z,33.93
2018-02-21T17:18:43.822Z,36.97
2018-02-21T17:21:14.790Z,31.00
2018-02-21T17:23:45.642Z,30.60
2018-02-21T17:26:16.510Z,32.13
2018-02-21T17:28:47.418Z,30.80
2018-02-21T17:31:18.285Z,34.93
2018-02-21T17:33:49.100Z,33.57
2018-02-21T17:36:19.997Z,32.30
2018-02-21T17:38:50.918Z,32.40
2018-02-21T17:41:31.722Z,33.97
2018-02-21T17:44:02.626Z,27.25
2018-02-21T17:46:33.529Z,34.90
2018-02-21T17:49:04.433Z,36.40
2018-02-21T17:51:35.342Z,30.00
2018-02-21T17:54:06.227Z,35.70
2018-02-21T17:56:37.117Z,32.83
2018-02-21T17:59:08.012Z,38.20
2018-02-21T18:01:38.911Z,30.57
2018-02-21T18:04:09.794Z,30.30
2018-02-21T18:06:40.725Z,32.00
2018-02-21T18:09:11.564Z,36.03
2018-02-21T18:11:42.514Z,34.60
2018-02-21T18:14:13.373Z,38.03
2018-02-21T18:16:44.276Z,31.80
2018-02-21T18:19:17.136Z,31.20
2018-02-21T18:21:48.763Z,30.85
2018-02-21T18:24:21.865Z,39.35
2018-02-21T18:26:56.366Z,29.90
2018-02-21T18:29:29.262Z,29.52
2018-02-21T18:32:00.210Z,26.30
2018-02-21T18:34:33.136Z,29.60
2018-02-21T18:37:04.056Z,28.38
2018-02-21T18:39:34.869Z,34.93
2018-02-21T18:42:05.747Z,29.17
2018-02-21T18:44:36.684Z,28.63
2018-02-21T18:47:07.656Z,29.30
2018-02-21T18:49:38.505Z,27.00
2018-02-21T18:52:09.318Z,30.53
2018-02-21T18:54:40.136Z,28.70
2018-02-21T18:57:10.959Z,26.97
2018-02-21T18:59:41.800Z,26.73
2018-02-21T19:02:12.638Z,27.10
2018-02-21T19:04:43.457Z,28.00
2018-02-21T19:07:14.367Z,30.47
2018-02-21T19:09:45.216Z,25.57
2018-02-21T19:12:16.072Z,29.70
2018-02-21T19:14:46.896Z,33.60
2018-02-21T19:17:18.765Z,29.43
2018-02-21T19:19:49.612Z,28.48
2018-02-21T19:22:20.460Z,24.63
2018-02-21T19:24:52.259Z,24.67
2018-02-21T19:27:23.073Z,29.10
2018-02-21T19:29:53.881Z,26.97
2018-02-21T19:32:24.688Z,26.90
2018-02-21T19:34:55.486Z,26.83
2018-02-21T19:37:26.339Z,26.80
2018-02-21T19:39:57.189Z,24.80
2018-02-21T19:42:28.010Z,21.53
2018-02-21T19:44:58.825Z,24.20
2018-02-21T19:47:29.747Z,23.23
2018-02-21T19:50:00.577Z,24.90
2018-02-21T19:52:31.407Z,23.03
2018-02-21T19:55:02.294Z,26.93
2018-02-21T19:57:33.124Z,26.93
2018-02-21T20:00:03.961Z,31.77
2018-02-21T20:02:34.823Z,24.43
2018-02-21T20:05:05.731Z,21.77
2018-02-21T20:07:36.633Z,25.70
2018-02-21T20:10:07.405Z,24.10
2018-02-21T20:12:38.271Z,23.60
2018-02-21T20:15:09.098Z,22.97
2018-02-21T20:17:39.988Z,22.10
2018-02-21T20:20:10.863Z,23.70
2018-02-21T20:22:41.824Z,27.17
2018-02-21T20:25:12.625Z,19.30
2018-02-21T20:27:43.482Z,20.30
2018-02-21T20:30:14.373Z,29.90
2018-02-21T20:32:45.255Z,25.80
2018-02-21T20:35:16.154Z,25.90
2018-02-21T20:37:47.048Z,20.40
2018-02-21T20:40:17.960Z,24.37
2018-02-21T20:42:48.851Z,21.87
2018-02-21T20:45:20.722Z,21.37
2018-02-21T20:47:51.558Z,19.45
2018-02-21T20:50:22.394Z,19.60
2018-02-21T20:52:54.293Z,24.70
2018-02-21T20:55:25.131Z,21.23
2018-02-21T20:57:55.981Z,25.70
2018-02-21T21:00:26.816Z,21.27
2018-02-21T21:02:57.692Z,25.33
2018-02-21T21:05:28.746Z,22.77
2018-02-21T21:07:59.618Z,20.37
2018-02-21T21:10:30.474Z,22.00
2018-02-21T21:13:01.381Z,23.57
2018-02-21T21:15:33.455Z,21.77
2018-02-21T21:18:04.321Z,21.52
2018-02-21T21:20:35.109Z,25.10
2018-02-21T21:23:05.980Z,22.50
2018-02-21T21:25:36.869Z,24.33
2018-02-21T21:28:07.780Z,27.07
2018-02-21T21:30:38.595Z,21.57
2018-02-21T21:33:09.529Z,26.57
2018-02-21T21:35:40.454Z,25.80
2018-02-21T21:38:11.345Z,21.87
2018-02-21T21:40:42.226Z,27.30
2018-02-21T21:43:13.122Z,24.00
2018-02-21T21:45:44.007Z,22.83
2018-02-21T21:48:14.863Z,24.97
2018-02-21T21:50:45.722Z,26.57
2018-02-21T21:53:16.531Z,23.23
2018-02-21T21:55:47.398Z,27.00
2018-02-21T21:58:18.384Z,26.60
2018-02-21T22:00:49.246Z,32.75
2018-02-21T22:03:20.075Z,28.20
2018-02-21T22:05:50.962Z,24.03
2018-02-21T22:08:21.822Z,27.17
2018-02-21T22:10:52.706Z,22.57
2018-02-21T22:13:23.667Z,31.17
2018-02-21T22:15:56.558Z,26.00
2018-02-21T22:18:27.398Z,21.65
2018-02-21T22:20:58.237Z,24.03
2018-02-21T22:23:29.097Z,26.27
2018-02-21T22:25:59.909Z,27.70
2018-02-21T22:28:30.801Z,27.57
2018-02-21T22:31:02.698Z,23.90
2018-02-21T22:33:33.563Z,28.67
2018-02-21T22:36:04.546Z,29.50
2018-02-21T22:38:35.377Z,26.50
2018-02-21T22:41:06.204Z,26.57
2018-02-21T22:43:37.013Z,25.63
2018-02-21T22:46:07.757Z,24.63
2018-02-21T22:48:38.551Z,28.07
2018-02-21T22:51:09.302Z,24.43
2018-02-21T22:53:40.057Z,24.23
2018-02-21T22:56:10.821Z,28.20
2018-02-21T22:58:41.591Z,27.10
2018-02-21T23:01:12.358Z,32.60
2018-02-21T23:03:43.165Z,29.67
2018-02-21T23:06:13.920Z,26.43
2018-02-21T23:08:44.681Z,22.50
2018-02-21T23:11:17.506Z,24.27
2018-02-21T23:13:48.267Z,24.58
2018-02-21T23:16:19.016Z,28.70
2018-02-21T23:18:50.841Z,26.10
2018-02-21T23:21:21.637Z,26.25
2018-02-21T23:23:52.417Z,21.57
2018-02-21T23:26:23.156Z,23.80
2018-02-21T23:28:53.933Z,27.97
2018-02-21T23:31:24.690Z,26.90
2018-02-21T23:33:55.490Z,27.10
2018-02-21T23:36:26.294Z,29.57
2018-02-21T23:38:57.086Z,31.67
2018-02-21T23:41:27.841Z,26.23
2018-02-21T23:43:58.628Z,30.30
2018-02-21T23:46:29.394Z,32.47
2018-02-21T23:49:00.170Z,25.80
2018-02-21T23:51:30.978Z,26.67
2018-02-21T23:54:01.754Z,27.77
2018-02-21T23:56:32.504Z,27.77
2018-02-21T23:59:03.268Z,24.77
